岩国飛行場の過去48時間の天気

岩国飛行場 (Iwakuni)

現在時刻: 9/16 12:06 JST (9/16 03:06 UTC) 以下の時間は現地時間です。

過去48時間のMETAR気象情報
時間 風向 風速(m/s) 視程 気温(℃) 湿度(%) 気圧(hPa) 天気現象
16 10:55 東北東 7 10km以上 30 53 1005.5
16 09:55 北東 7 10km以上 28.9 57 1006
16 08:55 北東 8 10km以上 28.3 61 1006.2
16 07:55 4 10km以上 26.1 67 1006
16 06:55 4 10km以上 26.1 65 1005.7
16 05:55 北北東 5 10km以上 25 74 1006
16 04:55 西北西 2 10km以上 25 69 1005.7
16 03:55 4 10km以上 26.1 65 1005.8
16 02:55 4 10km以上 26.1 67 1005.8
16 01:55 北北東 5 10km以上 26.7 64 1006.2
16 00:55 北北東 5 10km以上 26.7 69 1006.4
15 23:55 3 10km以上 27.2 67 1006.5
15 22:55 北北西 3 10km以上 27.2 67 1006.6
15 21:55 3 10km以上 27.8 67 1006.7
15 20:55 6 10km以上 27.8 67 1006.6
15 19:55 5 10km以上 27.8 77 1006.4
15 18:55 西 2 10km以上 28.3 72 1005.8
15 17:55 2 10km以上 28.3 72 1005.6
15 16:55 2 10km以上 28.9 70 1005.4
15 15:55 2 10km以上 29.4 63 1005.5
15 14:55 南西 2 10km以上 28.3 70 1005.9
15 13:55 4 10km以上 28.9 70 1006.4
15 12:55 4 10km以上 28.9 70 1007.1
15 11:55 南南東 3 10km以上 28.9 67 1008
15 10:55 東北東 2 10km以上 28.9 65 1008.8
15 09:55 東北東 2 10km以上 27.8 74 1009.3
15 08:55 北北東 3 10km以上 27.2 72 1009.7
15 07:55 北西 2 10km以上 25.6 79 1009.5
15 06:55 西北西 3 10km以上 23.9 84 1009.4
15 05:55 西北西 3 10km以上 23.3 87 1009.3
15 04:55 西北西 2 10km以上 23.9 84 1009.2
15 03:55 西北西 3 10km以上 24.4 82 1009.2
15 02:55 西北西 2 10km以上 23.9 84 1009.5
15 01:55 北西 3 10km以上 24.4 85 1009.7
15 00:55 西北西 4 10km以上 24.4 85 1010
14 23:55 西北西 4 10km以上 25 82 1010
14 22:55 西 2 10km以上 25.6 79 1010.2
14 21:55 西北西 3 10km以上 26.1 77 1010.3
14 20:55 西北西 3 10km以上 26.1 77 1010.1
14 19:55 北西 2 10km以上 26.7 74 1010
14 18:55 3 10km以上 27.2 69 1009.5
14 17:55 南南東 3 10km以上 27.8 72 1009
14 16:55 南南東 4 10km以上 28.9 67 1008.9
14 15:55 3 10km以上 28.9 70 1008.8
14 14:55 4 10km以上 29.4 65 1009
14 13:55 3 10km以上 28.9 67 1009.3
14 12:55 東北東 2 10km以上 29.4 63 1010
RJOI 160155Z 06013KT 9999 FEW025 30/19 A2969 RMK SLP055 T03000194
RJOI 160055Z 04013KT 9999 FEW025 FEW100 29/19 A2971 RMK SLP060 T02890194
RJOI 152355Z 04015KT 9999 FEW025 SCT070 SCT100 28/20 A2971 RMK SLP062 T02830200 10289 20239 53003
RJOI 152255Z 01008KT 9999 FEW020 BKN070 BKN100 26/19 A2971 RMK SLP060 T02610194
RJOI 152155Z 01007KT 9999 FEW035 SCT050 26/19 A2970 RMK SLP057 T02610189
RJOI 152055Z 02010KT 9999 FEW050 25/20 A2971 RMK SLP060 T02500200 54000
RJOI 151955Z 29003KT 9999 FEW020 FEW070 25/19 A2970 RMK SLP057 T02500189
RJOI 151855Z 01008KT 9999 FEW030 BKN050 26/19 A2970 RMK SLP058 T02610189
RJOI 151755Z 01008KT 9999 FEW030 SCT050 BKN075 26/19 A2970 RMK SLP058 T02610194 10278 20261 58007
RJOI 151655Z 02009KT 9999 FEW030 BKN055 27/19 A2972 RMK SLP062 T02670194
RJOI 151555Z 02010KT 9999 FEW030 BKN055 27/21 A2972 RMK SLP064 T02670206
RJOI 151455Z 36005KT 9999 FEW030 BKN050 BKN070 27/21 A2972 RMK SLP065 T02720206 403000233 58003
RJOI 151355Z 34006KT 9999 FEW030 BKN050 BKN070 27/21 A2973 RMK SLP066 T02720206
RJOI 151255Z 35006KT 9999 FEW035 SCT050 BKN070 28/21 A2973 RMK SLP067 T02780211
RJOI 151155Z 01011KT 9999 FEW035 SCT080 28/21 A2973 RMK SLP066 T02780211 10300 20278 51014
RJOI 151055Z 01009KT 9999 FEW035 BKN055 28/23 A2972 RMK SLP064 T02780233
RJOI 150955Z 28003KT 9999 FEW020 BKN055 28/23 A2970 RMK SLP058 T02830228
RJOI 150855Z 19003KT 9999 FEW020 BKN065 28/23 A2970 RMK SLP056 T02830228 56003
RJOI 150755Z 19004KT 9999 FEW020 FEW040 SCT080 29/23 A2969 RMK SLP054 T02890228
RJOI 150655Z 17004KT 9999 FEW020 SCT080 29/22 A2970 RMK SLP055 T02940217
RJOI 150555Z 22004KT 9999 FEW020 BKN075 28/22 A2971 RMK SLP059 T02830222 10294 20272 56020
RJOI 150455Z 17008KT 9999 FEW020 29/23 A2972 RMK SLP064 MDT CU W-N T02890228
RJOI 150355Z 18007KT 9999 FEW020 29/23 A2974 RMK SLP071 MDT CU W-N T02890228
RJOI 150255Z 16006KT 9999 FEW020 29/22 A2977 RMK SLP080 MDT CU W-N T02890222 58017
RJOI 150155Z 07004KT 9999 FEW020 29/22 A2979 RMK SLP088 T02890217
RJOI 150055Z 07004KT 9999 FEW020 28/23 A2981 RMK SLP093 T02780228
RJOI 142355Z 03006KT 9999 FEW020 FEW080 27/22 A2982 RMK SLP097 T02720217 10278 20233 51003
RJOI 142255Z 31004KT 9999 FEW025 26/22 A2981 RMK SLP095 T02560217
RJOI 142155Z 30005KT 9999 FEW025 24/21 A2981 RMK SLP094 T02390211
RJOI 142055Z 30005KT 9999 FEW025 FEW080 23/21 A2981 RMK SLP093 T02330211 56003
RJOI 141955Z 30004KT 9999 CLR 24/21 A2980 RMK SLP092 T02390211
RJOI 141855Z 30005KT 9999 CLR 24/21 A2980 RMK SLP092 T02440211
RJOI 141755Z 29004KT 9999 CLR 24/21 A2981 RMK SLP095 T02390211 10261 20239 56003
RJOI 141655Z 31005KT 9999 CLR 24/22 A2982 RMK SLP097 T02440217
RJOI 141555Z 30007KT 9999 FEW050 24/22 A2983 RMK SLP100 T02440217
RJOI 141455Z 29007KT 9999 FEW050 25/22 A2983 RMK SLP100 T02500217 402940233 56003
RJOI 141355Z 28004KT 9999 FEW050 26/21 A2983 RMK SLP102 T02560217
RJOI 141255Z 30005KT 9999 SCT055 26/22 A2984 RMK SLP103 T02610217
RJOI 141155Z 30006KT 9999 SCT050 26/22 A2983 RMK SLP101 70075 T02610217 10294 20261 52014
RJOI 141055Z 31004KT 9999 FEW050 FEW080 27/22 A2983 RMK SLP100 T02670217
RJOI 140955Z 19005KT 9999 FEW050 FEW080 27/21 A2981 RMK SLP095 T02720211
RJOI 140855Z 15006KT 9999 FEW035 FEW070 28/22 A2980 RMK SLP090 T02780222 54000
RJOI 140755Z 16007KT 9999 FEW035 FEW070 29/22 A2980 RMK SLP089 T02890222
RJOI 140655Z 18006KT 9999 FEW035 FEW070 29/23 A2979 RMK SLP088 T02890228
RJOI 140555Z 17007KT 9999 FEW035 29/22 A2980 RMK SLP090 T02940222 10294 20267 58017
RJOI 140455Z 19006KT 9999 FEW035 29/22 A2981 RMK SLP093 T02890222
RJOI 140355Z 07004KT 9999 FEW035 29/22 A2983 RMK SLP100 T02940217